createdAt,value
2023-05-14T00:00:31.220Z,78.4004
2023-05-14T00:01:33.830Z,78.4025
2023-05-14T00:02:36.499Z,77.9420
2023-05-14T00:03:39.080Z,79.2987
2023-05-14T00:04:41.751Z,78.5828
2023-05-14T00:05:44.233Z,78.2795
2023-05-14T00:06:46.874Z,79.1936
2023-05-14T00:09:33.349Z,79.5498
2023-05-14T00:10:35.948Z,79.3812
2023-05-14T00:11:38.569Z,79.2875
2023-05-14T00:12:41.176Z,79.1448
2023-05-14T00:13:43.837Z,79.6026
2023-05-14T00:14:46.381Z,79.6826
2023-05-14T00:15:49.259Z,79.3244
2023-05-14T00:16:51.607Z,79.2811
2023-05-14T00:17:54.312Z,79.3876
2023-05-14T00:18:56.859Z,78.6119
2023-05-14T00:19:59.465Z,78.5815
2023-05-14T00:21:02.056Z,78.8656
2023-05-14T00:22:04.777Z,78.5985
2023-05-14T00:23:07.279Z,79.5142
2023-05-14T00:24:09.898Z,79.8293
2023-05-14T00:25:12.480Z,79.7651
2023-05-14T00:26:15.156Z,79.3928
2023-05-14T00:27:17.701Z,80.1759
2023-05-14T00:28:20.328Z,80.0837
2023-05-14T00:29:22.907Z,80.2238
2023-05-14T00:30:25.719Z,79.9852
2023-05-14T00:31:28.165Z,79.9464
2023-05-14T00:32:30.791Z,79.6328
2023-05-14T00:33:33.370Z,79.8148
2023-05-14T00:34:35.986Z,79.9168
2023-05-14T00:35:38.556Z,80.3863
2023-05-14T00:36:41.405Z,80.3102
2023-05-14T00:37:43.764Z,80.8476
2023-05-14T00:38:46.409Z,80.9895
2023-05-14T00:39:48.989Z,80.8694
2023-05-14T00:40:51.639Z,80.6334
2023-05-14T00:41:54.195Z,80.0812
2023-05-14T00:42:56.929Z,79.9449
2023-05-14T00:43:59.426Z,79.8775
2023-05-14T00:45:02.037Z,79.6472
2023-05-14T00:46:04.619Z,79.6817
2023-05-14T00:49:01.968Z,80.5249
2023-05-14T00:50:04.610Z,80.4977
2023-05-14T00:51:07.175Z,80.6271
2023-05-14T00:52:09.812Z,80.8020
2023-05-14T00:53:12.398Z,80.8796
2023-05-14T00:54:15.060Z,82.3171
2023-05-14T00:55:17.618Z,82.5074
2023-05-14T00:56:20.249Z,82.9517
2023-05-14T00:57:22.831Z,82.8169
2023-05-14T00:58:25.481Z,83.0074
2023-05-14T00:59:28.065Z,83.4771
2023-05-14T01:00:30.717Z,83.3002
2023-05-14T01:01:33.309Z,83.1621
2023-05-14T01:02:35.967Z,82.8383
2023-05-14T01:03:38.584Z,82.8545
2023-05-14T01:04:41.137Z,82.6316
2023-05-14T01:05:43.738Z,82.6175
2023-05-14T01:06:46.349Z,82.5792
2023-05-14T01:07:48.925Z,82.4301
2023-05-14T01:08:51.556Z,82.2412
2023-05-14T01:09:54.149Z,81.8226
2023-05-14T01:10:56.765Z,82.1121
2023-05-14T01:11:59.362Z,81.9266
2023-05-14T01:13:01.987Z,81.8838
2023-05-14T01:14:04.605Z,81.3070
2023-05-14T01:15:07.192Z,81.8731
2023-05-14T01:16:10.292Z,81.5126
2023-05-14T01:17:12.407Z,81.0552
2023-05-14T01:18:14.989Z,80.9650
2023-05-14T01:19:17.676Z,81.3048
2023-05-14T01:20:20.224Z,81.1377
2023-05-14T01:21:22.840Z,80.7741
2023-05-14T01:22:25.441Z,80.1541
2023-05-14T01:23:28.052Z,80.4498
2023-05-14T01:24:30.645Z,80.8560
2023-05-14T01:25:33.266Z,80.8917
2023-05-14T01:26:35.842Z,81.5328
2023-05-14T01:27:38.468Z,81.2046
2023-05-14T01:28:41.070Z,81.2786
2023-05-14T01:29:43.704Z,81.2602
2023-05-14T01:30:46.267Z,82.2347
2023-05-14T01:31:48.938Z,82.1822
2023-05-14T01:32:51.674Z,81.9051
2023-05-14T01:33:54.115Z,82.0263
2023-05-14T01:34:56.705Z,82.2475
2023-05-14T01:35:59.337Z,82.3141
2023-05-14T01:37:02.014Z,82.6851
2023-05-14T01:38:04.538Z,82.2905
2023-05-14T01:39:07.153Z,81.9979
2023-05-14T01:40:09.826Z,81.9735
2023-05-14T01:41:12.359Z,82.3528
2023-05-14T01:42:14.946Z,82.3439
2023-05-14T01:43:17.589Z,82.6104
2023-05-14T01:44:20.149Z,83.3556
2023-05-14T01:45:22.772Z,83.7102
2023-05-14T01:46:25.389Z,84.2258
2023-05-14T01:47:27.993Z,83.7153
2023-05-14T01:48:30.588Z,83.9399
2023-05-14T01:49:33.206Z,83.9473
2023-05-14T01:50:35.798Z,83.6876
2023-05-14T01:51:38.424Z,84.4702
2023-05-14T01:52:41.009Z,84.3890
2023-05-14T01:53:43.630Z,84.1506
2023-05-14T01:54:46.235Z,84.4406
2023-05-14T01:55:48.866Z,84.7262
2023-05-14T01:56:51.450Z,84.9125
2023-05-14T01:57:54.077Z,84.2437
2023-05-14T01:58:56.654Z,85.3394
2023-05-14T01:59:59.290Z,85.0730
2023-05-14T02:01:01.947Z,85.0153
2023-05-14T02:02:04.502Z,84.7860
2023-05-14T02:03:07.165Z,85.3527
2023-05-14T02:04:09.761Z,85.1193
2023-05-14T02:05:12.310Z,84.7559
2023-05-14T02:06:14.942Z,84.1841
2023-05-14T02:07:17.526Z,84.6581
2023-05-14T02:08:20.159Z,85.8687
2023-05-14T02:09:22.750Z,85.7360
2023-05-14T02:10:25.649Z,85.9649
2023-05-14T02:11:27.975Z,85.9925
2023-05-14T02:12:30.614Z,85.3836
2023-05-14T02:13:33.195Z,85.6991
2023-05-14T02:14:35.836Z,85.3442
2023-05-14T02:15:38.441Z,85.1985
2023-05-14T02:16:41.036Z,84.8062
2023-05-14T02:17:43.672Z,84.7977
2023-05-14T02:18:46.278Z,84.7741
2023-05-14T02:21:32.751Z,85.0449
2023-05-14T02:22:35.346Z,85.4158
2023-05-14T02:23:41.856Z,85.6001
2023-05-14T02:24:40.566Z,85.8325
2023-05-14T02:25:43.307Z,85.5938
2023-05-14T02:26:45.978Z,85.3137
2023-05-14T02:27:48.442Z,86.0035
2023-05-14T02:28:51.026Z,85.5884
2023-05-14T02:29:53.708Z,85.5542
2023-05-14T02:30:56.260Z,85.2733
2023-05-14T02:31:59.037Z,85.2242
2023-05-14T02:33:01.526Z,85.0264
2023-05-14T02:34:04.118Z,84.3433
2023-05-14T02:35:06.728Z,83.8972
2023-05-14T02:36:09.318Z,84.6285
2023-05-14T02:37:11.904Z,85.7780
2023-05-14T02:38:14.538Z,85.6501
2023-05-14T02:39:17.128Z,84.9628
2023-05-14T02:40:19.767Z,85.1667
2023-05-14T02:41:22.352Z,85.2334
2023-05-14T02:42:24.982Z,85.1355
2023-05-14T02:43:27.573Z,85.3195
2023-05-14T02:44:30.450Z,85.3721
2023-05-14T02:45:32.806Z,85.0479
2023-05-14T02:46:35.569Z,85.2071
2023-05-14T02:47:38.429Z,85.2570
2023-05-14T02:48:40.652Z,85.2815
2023-05-14T02:49:43.249Z,86.1475
2023-05-14T02:50:45.888Z,85.9401
2023-05-14T02:51:48.457Z,85.2682
2023-05-14T02:52:51.119Z,85.1692
2023-05-14T02:53:53.675Z,85.2145
2023-05-14T02:54:56.315Z,85.1443
2023-05-14T02:55:58.894Z,85.6561
2023-05-14T02:57:01.530Z,86.3458
2023-05-14T02:58:04.116Z,85.8892
2023-05-14T02:59:06.768Z,86.0821
2023-05-14T03:00:09.366Z,86.3512
2023-05-14T03:01:11.994Z,85.9484
2023-05-14T03:02:14.581Z,85.7086
2023-05-14T03:03:17.283Z,85.3097
2023-05-14T03:04:19.788Z,84.8865
2023-05-14T03:05:22.424Z,85.1756
2023-05-14T03:06:25.024Z,85.3627
2023-05-14T03:07:27.655Z,85.2991
2023-05-14T03:08:30.256Z,85.1178
2023-05-14T03:09:32.873Z,85.2990
2023-05-14T03:10:35.464Z,85.3846
2023-05-14T03:11:38.100Z,86.0401
2023-05-14T03:12:40.712Z,85.2063
2023-05-14T03:13:43.326Z,85.5930
2023-05-14T03:14:46.036Z,85.5661
2023-05-14T03:15:48.563Z,85.2446
2023-05-14T03:16:51.175Z,85.9101
2023-05-14T03:17:53.863Z,85.9211
2023-05-14T03:18:56.417Z,85.8504
2023-05-14T03:19:59.023Z,85.7491
2023-05-14T03:21:01.601Z,85.0861
2023-05-14T03:22:04.246Z,85.1557
2023-05-14T03:23:06.833Z,86.4343
2023-05-14T03:24:09.765Z,87.0042
2023-05-14T03:25:12.051Z,86.6703
2023-05-14T03:26:14.689Z,86.0177
2023-05-14T03:27:17.274Z,86.3867
2023-05-14T03:28:19.920Z,86.6005
2023-05-14T03:29:22.512Z,86.8820
2023-05-14T03:30:25.383Z,87.2852
2023-05-14T03:31:27.761Z,87.3875
2023-05-14T03:32:30.393Z,87.5821
2023-05-14T03:33:32.972Z,88.1935
2023-05-14T03:34:35.596Z,88.5492
2023-05-14T03:35:38.186Z,88.2084
2023-05-14T03:36:40.836Z,87.8300
2023-05-14T03:37:43.424Z,87.9732
2023-05-14T03:38:46.062Z,87.6767
2023-05-14T03:39:48.659Z,87.7785
2023-05-14T03:40:51.317Z,87.5444
2023-05-14T03:41:53.877Z,87.1755
2023-05-14T03:42:56.520Z,87.3206
2023-05-14T03:43:59.148Z,87.0140
2023-05-14T03:45:01.752Z,86.9562
2023-05-14T03:46:04.359Z,87.2310
2023-05-14T03:47:06.979Z,87.6174
2023-05-14T03:48:09.661Z,87.7958
2023-05-14T03:49:12.226Z,87.3176
2023-05-14T03:50:14.835Z,86.9809
2023-05-14T03:51:17.476Z,86.9596
2023-05-14T03:52:20.036Z,86.8155
2023-05-14T03:53:22.783Z,86.8252
2023-05-14T03:54:25.274Z,86.8134
2023-05-14T03:55:27.914Z,87.2951
2023-05-14T03:56:30.504Z,87.4533
2023-05-14T03:57:33.153Z,87.7235
2023-05-14T03:58:35.764Z,87.4259
2023-05-14T03:59:38.352Z,87.4033
2023-05-14T04:00:40.952Z,88.2219
2023-05-14T04:01:43.596Z,88.3054
2023-05-14T04:02:46.236Z,88.1028
2023-05-14T04:03:48.981Z,87.6871
2023-05-14T04:04:51.519Z,87.9308
2023-05-14T04:05:54.043Z,87.8694
2023-05-14T04:06:56.654Z,88.0150
2023-05-14T04:07:59.283Z,87.6008
2023-05-14T04:09:01.886Z,87.3106
2023-05-14T04:10:04.831Z,88.2578
2023-05-14T04:11:07.117Z,88.4283
2023-05-14T04:12:09.750Z,88.4846
2023-05-14T04:13:12.407Z,88.3920
2023-05-14T04:14:14.993Z,88.4048
2023-05-14T04:16:47.214Z,88.6007
2023-05-14T04:17:49.779Z,89.5127
2023-05-14T04:18:52.400Z,89.6432
2023-05-14T04:19:54.937Z,89.3010
2023-05-14T04:20:57.578Z,88.9931
2023-05-14T04:22:00.196Z,89.1718
2023-05-14T04:23:02.798Z,89.1947
2023-05-14T04:24:05.430Z,89.5364
2023-05-14T04:25:08.021Z,89.3158
2023-05-14T04:26:10.658Z,89.4696
2023-05-14T04:27:13.249Z,89.6086
2023-05-14T04:28:15.898Z,89.7262
2023-05-14T04:29:18.476Z,89.6889
2023-05-14T04:30:21.317Z,89.6126
2023-05-14T04:31:23.949Z,89.7016
2023-05-14T04:32:26.365Z,89.3141
2023-05-14T04:33:28.946Z,89.3763
2023-05-14T04:34:31.571Z,89.1092
2023-05-14T04:35:34.180Z,88.9334
2023-05-14T04:36:36.797Z,89.0263
2023-05-14T04:37:39.401Z,88.8367
2023-05-14T04:38:42.029Z,89.1485
2023-05-14T04:39:44.615Z,89.2349
2023-05-14T04:40:47.271Z,89.1372
2023-05-14T04:41:49.845Z,88.9109
2023-05-14T04:42:52.502Z,88.9633
2023-05-14T04:43:55.318Z,89.3324
2023-05-14T04:44:57.714Z,89.3342
2023-05-14T04:46:00.382Z,89.2873
2023-05-14T04:47:02.931Z,89.6694
2023-05-14T04:48:05.560Z,89.6996
2023-05-14T04:49:08.164Z,89.4960
2023-05-14T04:50:10.756Z,89.4396
2023-05-14T04:51:13.399Z,89.5505
2023-05-14T04:52:15.973Z,89.5358
2023-05-14T04:53:18.732Z,89.0613
2023-05-14T04:54:21.227Z,89.4814
2023-05-14T04:55:23.832Z,89.5725
2023-05-14T04:56:26.411Z,88.7717
2023-05-14T04:57:29.073Z,88.8400
2023-05-14T04:58:33.739Z,89.1222
2023-05-14T04:59:34.270Z,89.0157
2023-05-14T05:00:36.869Z,88.9994
2023-05-14T05:01:39.617Z,89.1882
2023-05-14T05:02:42.167Z,89.1639
2023-05-14T05:03:44.789Z,88.9109
2023-05-14T05:04:47.342Z,88.8758
2023-05-14T05:05:49.949Z,88.5878
2023-05-14T05:06:52.528Z,88.8452
2023-05-14T05:07:55.166Z,88.7542
2023-05-14T05:08:58.066Z,88.4209
2023-05-14T05:10:00.396Z,88.7772
2023-05-14T05:11:02.979Z,89.0079
2023-05-14T05:12:05.650Z,88.9617
2023-05-14T05:13:08.195Z,88.5976
2023-05-14T05:14:10.843Z,88.4825
2023-05-14T05:16:23.662Z,88.2651
2023-05-14T05:17:26.314Z,88.6528
2023-05-14T05:18:28.882Z,88.6567
2023-05-14T05:19:42.514Z,88.6672
2023-05-14T05:20:34.093Z,88.6773
2023-05-14T05:21:36.725Z,88.3527
2023-05-14T05:22:39.311Z,88.5879
2023-05-14T05:23:41.958Z,88.6974
2023-05-14T05:24:44.540Z,88.5575
2023-05-14T05:25:47.170Z,88.3184
2023-05-14T05:26:49.758Z,87.8747
2023-05-14T05:27:52.401Z,88.2346
2023-05-14T05:28:55.006Z,88.5617
2023-05-14T05:29:57.640Z,88.5453
2023-05-14T05:31:00.274Z,88.7148
2023-05-14T05:32:02.856Z,88.6255
2023-05-14T05:33:05.508Z,88.7154
2023-05-14T05:34:08.070Z,88.2344
2023-05-14T05:35:10.664Z,87.9569
2023-05-14T05:36:13.293Z,88.4346
2023-05-14T05:37:15.883Z,88.7559
2023-05-14T05:38:18.545Z,88.7096
2023-05-14T05:39:21.111Z,88.5654
2023-05-14T05:40:23.951Z,89.0187
2023-05-14T05:41:26.328Z,88.6526
2023-05-14T05:42:28.965Z,88.7310
2023-05-14T05:43:31.573Z,88.7734
2023-05-14T05:44:34.194Z,88.5776
2023-05-14T05:45:36.777Z,88.4321
2023-05-14T05:46:39.547Z,87.6655
2023-05-14T05:47:42.039Z,88.0762
2023-05-14T05:48:44.643Z,88.4391
2023-05-14T05:49:47.233Z,88.6405
2023-05-14T05:50:49.873Z,88.3089
2023-05-14T05:51:52.498Z,88.1146
2023-05-14T05:52:55.087Z,88.2051
2023-05-14T05:53:57.698Z,88.2676
2023-05-14T05:55:00.325Z,88.3062
2023-05-14T05:56:02.890Z,88.7569
2023-05-14T05:57:05.523Z,88.5501
2023-05-14T05:58:08.114Z,87.7300
2023-05-14T05:59:10.762Z,87.1679
2023-05-14T06:00:13.387Z,86.9423
2023-05-14T06:01:15.980Z,86.9133
2023-05-14T06:02:18.587Z,86.3229
2023-05-14T06:03:21.214Z,86.4831
2023-05-14T06:04:23.758Z,86.5392
2023-05-14T06:05:26.440Z,86.2530
2023-05-14T06:06:28.982Z,85.9898
2023-05-14T06:07:31.609Z,85.5882
2023-05-14T06:08:34.195Z,85.4672
2023-05-14T06:09:36.837Z,85.2215
2023-05-14T06:10:39.423Z,85.4277
2023-05-14T06:11:42.062Z,84.8795
2023-05-14T06:12:44.624Z,84.8943
2023-05-14T06:13:47.267Z,84.8284
2023-05-14T06:14:49.861Z,84.7731
2023-05-14T06:15:52.479Z,84.8905
2023-05-14T06:16:55.095Z,84.9203
2023-05-14T06:17:57.775Z,85.2611
2023-05-14T06:19:00.408Z,85.3195
2023-05-14T06:20:02.899Z,85.2167
2023-05-14T06:21:05.753Z,85.5457
2023-05-14T06:22:08.124Z,85.5657
2023-05-14T06:23:10.765Z,85.3363
2023-05-14T06:24:13.336Z,85.2027
2023-05-14T06:25:15.978Z,85.2943
2023-05-14T06:26:18.570Z,85.4177
2023-05-14T06:27:21.178Z,85.0705
2023-05-14T06:28:23.767Z,84.9697
2023-05-14T06:29:26.406Z,85.0017
2023-05-14T06:30:29.015Z,84.3203
2023-05-14T06:31:31.651Z,84.4313
2023-05-14T06:32:34.206Z,84.6672
2023-05-14T06:33:36.822Z,84.6775
2023-05-14T06:34:39.407Z,84.5333
2023-05-14T06:35:42.038Z,85.1884
2023-05-14T06:36:44.627Z,85.0401
2023-05-14T06:37:47.235Z,84.4772
2023-05-14T06:38:49.824Z,84.3756
2023-05-14T06:39:52.452Z,85.2709
2023-05-14T06:40:55.032Z,85.5191
2023-05-14T06:41:57.658Z,85.7616
2023-05-14T06:43:00.243Z,86.4026
2023-05-14T06:44:02.864Z,86.3370
2023-05-14T06:45:05.444Z,85.2475
2023-05-14T06:46:08.073Z,85.8962
2023-05-14T06:47:10.655Z,86.1028
2023-05-14T06:48:13.429Z,85.2211
2023-05-14T06:49:15.908Z,83.7143
2023-05-14T06:50:18.515Z,85.2513
2023-05-14T06:51:21.088Z,83.0996
2023-05-14T06:52:23.727Z,81.6152
2023-05-14T06:53:26.285Z,81.5836
2023-05-14T06:54:28.908Z,79.8832
2023-05-14T06:55:31.489Z,78.5291
2023-05-14T06:56:34.113Z,78.5705
2023-05-14T06:57:38.528Z,78.4472
2023-05-14T06:58:39.314Z,79.3892
2023-05-14T06:59:41.892Z,80.2308
2023-05-14T07:00:44.550Z,79.2131
2023-05-14T07:01:47.162Z,77.9351
2023-05-14T07:02:49.757Z,77.6709
2023-05-14T07:03:52.374Z,76.7626
2023-05-14T07:04:54.988Z,77.0385
2023-05-14T07:05:57.545Z,77.2366
2023-05-14T07:07:00.171Z,77.9667
2023-05-14T07:08:02.728Z,78.0549
2023-05-14T07:09:05.379Z,76.1125
2023-05-14T07:10:07.930Z,75.9059
2023-05-14T07:11:10.549Z,76.0849
2023-05-14T07:12:13.131Z,75.1919
2023-05-14T07:13:15.763Z,75.5129
2023-05-14T07:14:18.334Z,74.6035
2023-05-14T07:15:20.948Z,75.7702
2023-05-14T07:16:23.540Z,75.5716
2023-05-14T07:17:26.186Z,73.7648
2023-05-14T07:18:28.751Z,74.1391
2023-05-14T07:19:31.330Z,75.0229
2023-05-14T07:20:33.918Z,75.1534
2023-05-14T07:21:36.596Z,74.5809
2023-05-14T07:22:39.100Z,74.4227
2023-05-14T07:23:41.720Z,74.2485
2023-05-14T07:24:44.308Z,73.9223
2023-05-14T07:25:46.928Z,74.0283
2023-05-14T07:26:49.524Z,73.9911
2023-05-14T07:27:52.134Z,74.3044
2023-05-14T07:28:54.845Z,74.6741
2023-05-14T07:29:57.372Z,75.2846
2023-05-14T07:30:59.992Z,74.1652
2023-05-14T07:32:02.568Z,74.6771
2023-05-14T07:33:05.209Z,73.9194
2023-05-14T07:34:07.752Z,73.3543
2023-05-14T07:35:10.360Z,73.7193
2023-05-14T07:36:12.963Z,74.2092
2023-05-14T07:37:15.538Z,73.8010
2023-05-14T07:38:18.285Z,73.0597
2023-05-14T07:39:20.764Z,73.4420
2023-05-14T07:40:23.683Z,73.5051
2023-05-14T07:41:25.955Z,73.2874
2023-05-14T07:42:35.944Z,72.2408
2023-05-14T07:43:31.159Z,72.1278
2023-05-14T07:44:33.785Z,71.6122
2023-05-14T07:45:36.342Z,72.1361
2023-05-14T07:46:38.965Z,72.6024
2023-05-14T07:47:41.641Z,72.5771
2023-05-14T07:48:44.226Z,72.9544
2023-05-14T07:49:46.753Z,73.9933
2023-05-14T07:50:49.382Z,71.8074
2023-05-14T07:51:51.949Z,71.4558
2023-05-14T07:52:54.594Z,71.0127
2023-05-14T07:53:57.150Z,72.0826
2023-05-14T07:54:59.778Z,71.5129
2023-05-14T07:56:02.340Z,71.2737
2023-05-14T07:57:04.967Z,70.3011
2023-05-14T07:58:07.542Z,70.5926
2023-05-14T07:59:10.168Z,72.0314
2023-05-14T08:00:12.740Z,69.8127
2023-05-14T08:01:15.362Z,68.3682
2023-05-14T08:02:17.991Z,69.0670
2023-05-14T08:03:20.634Z,68.5662
2023-05-14T08:06:21.314Z,68.2308
2023-05-14T08:07:23.930Z,68.8751
2023-05-14T08:08:26.505Z,68.9798
2023-05-14T08:09:29.127Z,67.5712
2023-05-14T08:10:31.763Z,67.8921
2023-05-14T08:11:34.333Z,67.7894
2023-05-14T08:12:36.908Z,67.8043
2023-05-14T08:13:39.538Z,67.4593
2023-05-14T08:14:42.150Z,66.4719
2023-05-14T08:15:44.762Z,66.1838
2023-05-14T08:16:47.356Z,65.9260
2023-05-14T08:17:50.024Z,66.5201
2023-05-14T08:18:52.548Z,65.2228
2023-05-14T08:19:55.139Z,65.2986
2023-05-14T08:20:57.906Z,66.8736
2023-05-14T08:22:00.341Z,66.8432
2023-05-14T08:23:02.905Z,66.6306
2023-05-14T08:25:34.792Z,66.5926
2023-05-14T08:26:37.409Z,66.1450
2023-05-14T08:27:39.994Z,66.2729
2023-05-14T08:28:42.637Z,65.5977
2023-05-14T08:29:45.187Z,65.5978
2023-05-14T08:30:47.819Z,65.0685
2023-05-14T08:31:50.398Z,67.1233
2023-05-14T08:32:53.095Z,66.9460
2023-05-14T08:33:55.573Z,66.9983
2023-05-14T08:34:58.207Z,66.0490
2023-05-14T08:36:00.775Z,65.0908
2023-05-14T08:37:03.407Z,62.8379
2023-05-14T08:38:06.001Z,62.6984
2023-05-14T08:39:08.714Z,63.5676
2023-05-14T08:40:11.183Z,63.6124
2023-05-14T08:41:13.799Z,63.0253
2023-05-14T08:42:16.368Z,62.9371
2023-05-14T08:43:18.984Z,61.8422
2023-05-14T08:44:21.560Z,62.6580
2023-05-14T08:45:24.171Z,61.7664
2023-05-14T08:46:26.751Z,62.0218
2023-05-14T08:47:29.378Z,61.9107
2023-05-14T08:48:32.095Z,61.4785
2023-05-14T08:49:34.573Z,61.9797
2023-05-14T08:50:37.134Z,62.4139
2023-05-14T08:51:39.744Z,60.4841
2023-05-14T08:52:42.323Z,60.1896
2023-05-14T08:53:44.948Z,61.9660
2023-05-14T08:54:47.511Z,61.7286
2023-05-14T08:55:50.122Z,61.5380
2023-05-14T08:56:52.702Z,62.5729
2023-05-14T08:57:55.316Z,63.5379
2023-05-14T08:58:57.872Z,63.5606
2023-05-14T09:00:00.510Z,63.8817
2023-05-14T09:01:03.063Z,62.4694
2023-05-14T09:02:05.766Z,59.8116
2023-05-14T09:03:08.305Z,59.7758
2023-05-14T09:04:10.954Z,59.4751
2023-05-14T09:05:13.480Z,59.3840
2023-05-14T09:06:16.056Z,59.4940
2023-05-14T09:07:18.621Z,57.7953
2023-05-14T09:08:21.339Z,58.1409
2023-05-14T09:09:23.814Z,58.6895
2023-05-14T09:10:27.022Z,58.6377
2023-05-14T09:11:28.995Z,58.7921
2023-05-14T09:12:31.618Z,59.7582
2023-05-14T09:13:34.193Z,60.0208
2023-05-14T09:14:36.808Z,60.0837
2023-05-14T09:15:39.372Z,60.6214
2023-05-14T09:16:42.041Z,61.5673
2023-05-14T09:17:44.589Z,61.4015
2023-05-14T09:18:47.233Z,61.7067
2023-05-14T09:19:49.753Z,61.6184
2023-05-14T09:20:52.404Z,62.4805
2023-05-14T09:21:54.949Z,62.7294
2023-05-14T09:22:57.575Z,62.0224
2023-05-14T09:24:00.164Z,62.2499
2023-05-14T09:25:02.770Z,61.9433
2023-05-14T09:26:05.359Z,61.4415
2023-05-14T09:27:07.952Z,61.3710
2023-05-14T09:28:10.544Z,61.7864
2023-05-14T09:29:13.170Z,62.3022
2023-05-14T09:31:49.876Z,61.8640
2023-05-14T09:32:52.420Z,62.3927
2023-05-14T09:35:19.401Z,61.3056
2023-05-14T09:36:22.016Z,60.7476
2023-05-14T09:37:24.591Z,62.4206
2023-05-14T09:38:27.213Z,62.1309
2023-05-14T09:39:29.796Z,61.7274
2023-05-14T09:40:32.424Z,63.0530
2023-05-14T09:41:35.069Z,62.6770
2023-05-14T09:42:37.617Z,62.0840
2023-05-14T09:43:40.183Z,62.9357
2023-05-14T09:44:42.809Z,64.2667
2023-05-14T09:45:45.382Z,64.6972
2023-05-14T09:46:48.071Z,66.0469
2023-05-14T09:47:50.687Z,64.3803
2023-05-14T09:48:53.210Z,64.4492
2023-05-14T09:49:55.816Z,64.6252
2023-05-14T09:50:58.498Z,64.9155
2023-05-14T09:52:01.064Z,65.3808
2023-05-14T09:53:03.600Z,65.0708
2023-05-14T09:54:06.169Z,65.4301
2023-05-14T09:55:08.791Z,65.8886
2023-05-14T09:56:11.379Z,65.1250
2023-05-14T09:57:14.242Z,64.6704
2023-05-14T09:58:16.573Z,65.4295
2023-05-14T09:59:19.181Z,65.8825
2023-05-14T10:00:22.206Z,64.3892
2023-05-14T10:01:24.423Z,64.3505
2023-05-14T10:02:26.960Z,64.4731
2023-05-14T10:03:29.573Z,65.2349
2023-05-14T10:04:32.163Z,65.1227
2023-05-14T10:05:34.798Z,64.3831
2023-05-14T10:06:37.327Z,65.1279
2023-05-14T10:07:39.973Z,63.8256
2023-05-14T10:08:42.524Z,62.5810
2023-05-14T10:09:45.310Z,63.2100
2023-05-14T10:10:47.716Z,62.0871
2023-05-14T10:11:50.333Z,62.1546
2023-05-14T10:12:52.920Z,63.7720
2023-05-14T10:13:55.523Z,63.6912
2023-05-14T10:15:00.211Z,63.0486
2023-05-14T10:16:00.698Z,62.6920
2023-05-14T10:17:03.407Z,63.2710
2023-05-14T10:18:05.990Z,63.5744
2023-05-14T10:19:08.560Z,62.8897
2023-05-14T10:20:11.111Z,62.2676
2023-05-14T10:21:13.720Z,61.3316
2023-05-14T10:22:16.446Z,61.5068
2023-05-14T10:23:18.886Z,61.7389
2023-05-14T10:24:21.460Z,62.1404
2023-05-14T10:25:24.086Z,61.8591
2023-05-14T10:26:26.645Z,63.7554
2023-05-14T10:27:29.258Z,64.4042
2023-05-14T10:28:31.858Z,63.4131
2023-05-14T10:29:34.465Z,63.4406
2023-05-14T10:30:37.026Z,63.8680
2023-05-14T10:31:39.782Z,64.1303
2023-05-14T10:32:42.331Z,63.4951
2023-05-14T10:33:44.831Z,63.9925
2023-05-14T10:34:47.397Z,63.0180
2023-05-14T10:35:50.039Z,63.3191
2023-05-14T10:36:52.586Z,63.0103
2023-05-14T10:37:55.218Z,63.6977
2023-05-14T10:38:57.788Z,65.7410
2023-05-14T10:40:00.397Z,66.0526
2023-05-14T10:41:02.980Z,66.7015
2023-05-14T10:43:49.249Z,65.3323
2023-05-14T10:44:51.877Z,65.2983
2023-05-14T10:45:54.444Z,64.9504
2023-05-14T10:48:11.907Z,64.8003
2023-05-14T10:49:14.468Z,63.5887
2023-05-14T10:50:17.057Z,63.2050
2023-05-14T10:51:19.711Z,62.9565
2023-05-14T10:52:22.274Z,62.8436
2023-05-14T10:53:24.827Z,61.9417
2023-05-14T10:54:27.472Z,61.9218
2023-05-14T10:55:30.036Z,62.9916
2023-05-14T10:56:32.653Z,62.9767
2023-05-14T10:57:35.225Z,63.5573
2023-05-14T10:58:37.854Z,61.9744
2023-05-14T10:59:40.436Z,61.6087
2023-05-14T11:00:43.048Z,60.4518
2023-05-14T11:01:45.666Z,61.2113
2023-05-14T11:02:48.293Z,61.3726
2023-05-14T11:03:50.825Z,59.8479
2023-05-14T11:04:53.431Z,59.5968
2023-05-14T11:05:55.993Z,59.6974
2023-05-14T11:06:58.625Z,59.7016
2023-05-14T11:08:01.189Z,60.1139
2023-05-14T11:09:03.831Z,60.9283
2023-05-14T11:10:06.406Z,60.4787
2023-05-14T11:11:09.010Z,61.3949
2023-05-14T11:12:11.582Z,61.1407
2023-05-14T11:13:14.207Z,61.6196
2023-05-14T11:14:16.786Z,60.8684
2023-05-14T11:15:19.410Z,61.3957
2023-05-14T11:16:24.007Z,59.8347
2023-05-14T11:17:24.632Z,60.2710
2023-05-14T11:18:27.191Z,59.8945
2023-05-14T11:19:29.780Z,59.0538
2023-05-14T11:20:32.357Z,58.8262
2023-05-14T11:21:35.003Z,58.7490
2023-05-14T11:22:37.545Z,58.2932
2023-05-14T11:23:40.157Z,58.9548
2023-05-14T11:24:42.733Z,59.4071
2023-05-14T11:25:45.389Z,58.5534
2023-05-14T11:26:47.928Z,58.7542
2023-05-14T11:27:50.578Z,59.4295
2023-05-14T11:28:53.141Z,60.3517
2023-05-14T11:29:55.780Z,58.9246
2023-05-14T11:30:58.327Z,58.9089
2023-05-14T11:32:00.994Z,59.3643
2023-05-14T11:34:47.180Z,60.2519
2023-05-14T11:35:49.758Z,58.8586
2023-05-14T11:36:52.381Z,58.4413
2023-05-14T11:37:54.953Z,58.6081
2023-05-14T11:38:57.567Z,58.3109
2023-05-14T11:40:00.201Z,58.5492
2023-05-14T11:41:02.795Z,58.7708
2023-05-14T11:42:05.339Z,59.3332
2023-05-14T11:43:07.965Z,58.3368
2023-05-14T11:44:10.544Z,58.7945
2023-05-14T11:45:13.240Z,58.3290
2023-05-14T11:46:15.808Z,58.3260
2023-05-14T11:47:18.412Z,58.0230
2023-05-14T11:48:20.942Z,58.6855
2023-05-14T11:49:23.580Z,58.9166
2023-05-14T11:50:26.374Z,59.0592
2023-05-14T11:51:28.764Z,59.4693
2023-05-14T11:52:31.343Z,59.9216
2023-05-14T11:53:33.962Z,59.3281
2023-05-14T11:56:01.001Z,59.3402
2023-05-14T11:57:03.798Z,58.3982
2023-05-14T11:58:06.193Z,58.3413
2023-05-14T11:59:08.768Z,58.4732
2023-05-14T12:00:11.414Z,58.5695
2023-05-14T12:01:13.981Z,59.3025
2023-05-14T12:02:16.614Z,59.1017
2023-05-14T12:03:19.333Z,59.3547
2023-05-14T12:04:21.877Z,58.2052
2023-05-14T12:05:24.375Z,58.3482
2023-05-14T12:06:27.067Z,57.5174
2023-05-14T12:07:29.590Z,57.5064
2023-05-14T12:08:32.198Z,58.4625
2023-05-14T12:09:34.783Z,58.6185
2023-05-14T12:10:37.399Z,57.7394
2023-05-14T12:11:39.987Z,57.7669
2023-05-14T12:12:42.595Z,57.5394
2023-05-14T12:13:45.187Z,54.7907
2023-05-14T12:14:47.904Z,53.4171
2023-05-14T12:15:50.672Z,55.1698
2023-05-14T12:16:53.003Z,55.2116
2023-05-14T12:17:55.601Z,56.1296
2023-05-14T12:18:58.244Z,54.8196
2023-05-14T12:20:00.769Z,56.2969
2023-05-14T12:21:03.405Z,57.0054
2023-05-14T12:22:05.990Z,56.0719
2023-05-14T12:23:08.605Z,57.4830
2023-05-14T12:24:11.164Z,60.3663
2023-05-14T12:25:14.134Z,59.0437
2023-05-14T12:26:16.426Z,58.2837
2023-05-14T12:27:18.981Z,57.3038
2023-05-14T12:28:21.555Z,56.3635
2023-05-14T12:29:24.180Z,57.8785
2023-05-14T12:30:26.761Z,56.8367
2023-05-14T12:31:29.433Z,58.4571
2023-05-14T12:32:32.012Z,57.0818
2023-05-14T12:33:34.597Z,56.5044
2023-05-14T12:34:37.683Z,57.1257
2023-05-14T12:35:39.785Z,57.6898
2023-05-14T12:36:42.351Z,57.6469
2023-05-14T12:37:44.989Z,58.7773
2023-05-14T12:38:47.543Z,56.9448
2023-05-14T12:39:50.192Z,55.5759
2023-05-14T12:40:53.203Z,58.1390
2023-05-14T12:41:55.368Z,58.3165
2023-05-14T12:42:57.936Z,55.6995
2023-05-14T12:44:00.581Z,55.1790
2023-05-14T12:45:03.145Z,54.9387
2023-05-14T12:46:05.769Z,55.6716
2023-05-14T12:47:08.374Z,58.5167
2023-05-14T12:48:11.017Z,55.6765
2023-05-14T12:49:13.531Z,55.7441
2023-05-14T12:50:16.349Z,56.0517
2023-05-14T12:51:18.728Z,56.5828
2023-05-14T12:52:36.158Z,57.3006
2023-05-14T12:53:23.967Z,56.3750
2023-05-14T12:54:26.532Z,55.6484
2023-05-14T12:55:29.107Z,56.1343
2023-05-14T12:56:31.724Z,56.1358
2023-05-14T12:57:34.294Z,56.0523